sensor_id;sensor_type;location;lat;lon;timestamp;P1;durP1;ratioP1;P2;durP2;ratioP2
22565;SDS011;11449;51.330;19.378;2023-05-21T00:04:55;39.10;;;17.90;;
22565;SDS011;11449;51.330;19.378;2023-05-21T00:10:03;36.10;;;17.60;;
22565;SDS011;11449;51.330;19.378;2023-05-21T00:15:11;48.50;;;18.20;;
22565;SDS011;11449;51.330;19.378;2023-05-21T00:20:19;36.90;;;16.40;;
22565;SDS011;11449;51.330;19.378;2023-05-21T00:25:28;36.90;;;17.20;;
22565;SDS011;11449;51.330;19.378;2023-05-21T00:30:36;39.00;;;17.30;;
22565;SDS011;11449;51.330;19.378;2023-05-21T00:35:44;41.90;;;16.70;;
22565;SDS011;11449;51.330;19.378;2023-05-21T00:40:52;38.60;;;16.60;;
22565;SDS011;11449;51.330;19.378;2023-05-21T10:28:11;20.80;;;5.10;;
22565;SDS011;11449;51.330;19.378;2023-05-21T10:33:22;17.80;;;5.00;;
22565;SDS011;11449;51.330;19.378;2023-05-21T10:38:32;18.90;;;4.90;;
22565;SDS011;11449;51.330;19.378;2023-05-21T10:49:36;24.70;;;5.60;;
22565;SDS011;11449;51.330;19.378;2023-05-21T10:54:59;28.60;;;5.60;;
22565;SDS011;11449;51.330;19.378;2023-05-21T11:00:14;35.70;;;5.50;;
22565;SDS011;11449;51.330;19.378;2023-05-21T11:10:51;31.50;;;5.60;;
22565;SDS011;11449;51.330;19.378;2023-05-21T11:16:04;33.80;;;5.70;;
22565;SDS011;11449;51.330;19.378;2023-05-21T11:21:15;23.30;;;5.00;;
22565;SDS011;11449;51.330;19.378;2023-05-21T11:26:24;21.40;;;4.20;;
22565;SDS011;11449;51.330;19.378;2023-05-21T11:31:34;16.70;;;5.00;;
22565;SDS011;11449;51.330;19.378;2023-05-21T11:36:41;24.00;;;5.50;;
22565;SDS011;11449;51.330;19.378;2023-05-21T11:41:57;17.80;;;4.00;;
22565;SDS011;11449;51.330;19.378;2023-05-21T11:47:12;20.80;;;5.00;;
22565;SDS011;11449;51.330;19.378;2023-05-21T11:52:22;15.60;;;4.00;;
22565;SDS011;11449;51.330;19.378;2023-05-21T11:57:30;28.20;;;5.10;;
22565;SDS011;11449;51.330;19.378;2023-05-21T12:02:38;35.30;;;5.30;;
22565;SDS011;11449;51.330;19.378;2023-05-21T12:07:51;29.40;;;5.70;;
22565;SDS011;11449;51.330;19.378;2023-05-21T12:13:01;28.20;;;4.80;;
22565;SDS011;11449;51.330;19.378;2023-05-21T12:18:08;27.40;;;5.10;;
22565;SDS011;11449;51.330;19.378;2023-05-21T12:23:23;26.80;;;4.80;;
22565;SDS011;11449;51.330;19.378;2023-05-21T12:28:31;19.60;;;4.50;;
22565;SDS011;11449;51.330;19.378;2023-05-21T12:33:42;16.80;;;4.90;;
22565;SDS011;11449;51.330;19.378;2023-05-21T12:38:51;12.40;;;4.00;;
22565;SDS011;11449;51.330;19.378;2023-05-21T12:43:59;15.50;;;5.20;;
22565;SDS011;11449;51.330;19.378;2023-05-21T12:49:07;12.70;;;4.10;;
22565;SDS011;11449;51.330;19.378;2023-05-21T12:54:15;16.00;;;4.50;;
22565;SDS011;11449;51.330;19.378;2023-05-21T12:59:23;14.70;;;4.90;;
22565;SDS011;11449;51.330;19.378;2023-05-21T13:04:34;12.20;;;3.70;;
22565;SDS011;11449;51.330;19.378;2023-05-21T13:09:42;15.50;;;4.90;;
22565;SDS011;11449;51.330;19.378;2023-05-21T13:14:50;15.10;;;3.90;;
22565;SDS011;11449;51.330;19.378;2023-05-21T13:25:15;17.60;;;5.00;;
22565;SDS011;11449;51.330;19.378;2023-05-21T13:30:26;22.80;;;4.70;;
22565;SDS011;11449;51.330;19.378;2023-05-21T13:35:34;27.80;;;4.90;;
22565;SDS011;11449;51.330;19.378;2023-05-21T13:40:42;27.70;;;5.30;;
22565;SDS011;11449;51.330;19.378;2023-05-21T13:45:50;34.70;;;5.10;;
22565;SDS011;11449;51.330;19.378;2023-05-21T13:50:58;22.40;;;5.00;;
22565;SDS011;11449;51.330;19.378;2023-05-21T13:56:06;29.00;;;6.20;;
22565;SDS011;11449;51.330;19.378;2023-05-21T14:01:14;38.10;;;6.40;;
22565;SDS011;11449;51.330;19.378;2023-05-21T14:06:22;28.20;;;5.20;;
22565;SDS011;11449;51.330;19.378;2023-05-21T14:11:30;35.10;;;6.10;;
22565;SDS011;11449;51.330;19.378;2023-05-21T14:16:41;31.10;;;5.40;;
22565;SDS011;11449;51.330;19.378;2023-05-21T14:21:52;31.00;;;5.20;;
22565;SDS011;11449;51.330;19.378;2023-05-21T14:27:00;21.60;;;4.90;;
22565;SDS011;11449;51.330;19.378;2023-05-21T14:32:03;35.10;;;6.00;;
22565;SDS011;11449;51.330;19.378;2023-05-21T14:37:06;28.50;;;5.40;;
22565;SDS011;11449;51.330;19.378;2023-05-21T14:42:13;32.00;;;5.60;;
22565;SDS011;11449;51.330;19.378;2023-05-21T14:47:21;33.60;;;6.10;;
22565;SDS011;11449;51.330;19.378;2023-05-21T14:52:29;48.90;;;17.40;;
22565;SDS011;11449;51.330;19.378;2023-05-21T14:57:37;19.80;;;4.90;;
22565;SDS011;11449;51.330;19.378;2023-05-21T15:02:45;36.50;;;10.90;;
22565;SDS011;11449;51.330;19.378;2023-05-21T15:07:56;27.70;;;6.30;;
22565;SDS011;11449;51.330;19.378;2023-05-21T15:13:04;18.00;;;5.00;;
22565;SDS011;11449;51.330;19.378;2023-05-21T15:18:12;17.80;;;5.20;;
22565;SDS011;11449;51.330;19.378;2023-05-21T15:23:20;19.10;;;5.10;;
22565;SDS011;11449;51.330;19.378;2023-05-21T15:28:28;15.30;;;5.20;;
22565;SDS011;11449;51.330;19.378;2023-05-21T15:33:36;21.10;;;6.10;;
22565;SDS011;11449;51.330;19.378;2023-05-21T15:38:43;18.20;;;5.70;;
22565;SDS011;11449;51.330;19.378;2023-05-21T15:43:51;26.00;;;6.00;;
22565;SDS011;11449;51.330;19.378;2023-05-21T15:48:59;52.20;;;8.00;;
22565;SDS011;11449;51.330;19.378;2023-05-21T15:54:07;47.10;;;7.90;;
22565;SDS011;11449;51.330;19.378;2023-05-21T15:59:14;29.80;;;6.00;;
22565;SDS011;11449;51.330;19.378;2023-05-21T16:04:22;28.80;;;5.40;;
22565;SDS011;11449;51.330;19.378;2023-05-21T16:09:30;42.30;;;7.00;;
22565;SDS011;11449;51.330;19.378;2023-05-21T16:14:38;29.00;;;5.50;;
22565;SDS011;11449;51.330;19.378;2023-05-21T16:19:46;32.70;;;5.80;;
22565;SDS011;11449;51.330;19.378;2023-05-21T16:24:53;32.10;;;8.10;;
22565;SDS011;11449;51.330;19.378;2023-05-21T16:30:02;29.70;;;6.30;;
22565;SDS011;11449;51.330;19.378;2023-05-21T16:35:11;28.30;;;5.90;;
22565;SDS011;11449;51.330;19.378;2023-05-21T16:40:18;28.20;;;5.40;;
22565;SDS011;11449;51.330;19.378;2023-05-21T16:45:28;39.90;;;7.60;;
22565;SDS011;11449;51.330;19.378;2023-05-21T16:50:45;25.40;;;4.70;;
22565;SDS011;11449;51.330;19.378;2023-05-21T16:55:55;26.80;;;5.30;;
22565;SDS011;11449;51.330;19.378;2023-05-21T17:01:03;18.70;;;4.90;;
22565;SDS011;11449;51.330;19.378;2023-05-21T17:06:11;30.90;;;6.60;;
22565;SDS011;11449;51.330;19.378;2023-05-21T17:11:20;25.00;;;5.70;;
22565;SDS011;11449;51.330;19.378;2023-05-21T17:16:28;24.90;;;5.70;;
22565;SDS011;11449;51.330;19.378;2023-05-21T17:21:36;22.00;;;5.10;;
22565;SDS011;11449;51.330;19.378;2023-05-21T17:26:44;21.40;;;4.80;;
22565;SDS011;11449;51.330;19.378;2023-05-21T17:31:51;23.80;;;6.00;;
22565;SDS011;11449;51.330;19.378;2023-05-21T17:36:59;24.30;;;6.10;;
22565;SDS011;11449;51.330;19.378;2023-05-21T17:42:07;26.70;;;5.70;;
22565;SDS011;11449;51.330;19.378;2023-05-21T17:47:10;22.10;;;5.40;;
22565;SDS011;11449;51.330;19.378;2023-05-21T17:52:18;29.80;;;6.20;;
22565;SDS011;11449;51.330;19.378;2023-05-21T17:57:26;25.30;;;5.90;;
22565;SDS011;11449;51.330;19.378;2023-05-21T18:02:34;19.30;;;5.10;;
22565;SDS011;11449;51.330;19.378;2023-05-21T18:07:41;17.20;;;4.60;;
22565;SDS011;11449;51.330;19.378;2023-05-21T18:12:49;15.50;;;4.90;;
22565;SDS011;11449;51.330;19.378;2023-05-21T18:17:57;12.00;;;4.30;;
22565;SDS011;11449;51.330;19.378;2023-05-21T18:23:05;22.20;;;6.20;;
22565;SDS011;11449;51.330;19.378;2023-05-21T18:28:13;20.80;;;6.90;;
22565;SDS011;11449;51.330;19.378;2023-05-21T18:33:21;18.10;;;5.80;;
22565;SDS011;11449;51.330;19.378;2023-05-21T18:38:28;20.20;;;6.20;;
22565;SDS011;11449;51.330;19.378;2023-05-21T18:43:37;29.00;;;8.20;;
22565;SDS011;11449;51.330;19.378;2023-05-21T18:48:45;24.50;;;7.60;;
22565;SDS011;11449;51.330;19.378;2023-05-21T18:53:55;17.90;;;6.40;;
22565;SDS011;11449;51.330;19.378;2023-05-21T18:59:02;17.30;;;5.90;;
22565;SDS011;11449;51.330;19.378;2023-05-21T19:04:10;16.60;;;5.00;;
22565;SDS011;11449;51.330;19.378;2023-05-21T19:09:19;26.30;;;7.10;;
22565;SDS011;11449;51.330;19.378;2023-05-21T19:14:28;20.40;;;6.20;;
22565;SDS011;11449;51.330;19.378;2023-05-21T19:19:36;16.80;;;5.30;;
22565;SDS011;11449;51.330;19.378;2023-05-21T19:24:44;15.10;;;5.40;;
22565;SDS011;11449;51.330;19.378;2023-05-21T19:29:53;14.40;;;5.50;;
22565;SDS011;11449;51.330;19.378;2023-05-21T19:35:02;25.80;;;7.90;;
22565;SDS011;11449;51.330;19.378;2023-05-21T19:40:11;19.70;;;6.90;;
22565;SDS011;11449;51.330;19.378;2023-05-21T19:45:20;18.50;;;6.50;;
22565;SDS011;11449;51.330;19.378;2023-05-21T19:50:29;15.90;;;5.60;;
22565;SDS011;11449;51.330;19.378;2023-05-21T19:55:37;16.50;;;5.80;;
22565;SDS011;11449;51.330;19.378;2023-05-21T20:00:44;19.40;;;6.40;;
22565;SDS011;11449;51.330;19.378;2023-05-21T20:05:53;14.40;;;6.50;;
22565;SDS011;11449;51.330;19.378;2023-05-21T20:11:01;21.90;;;7.80;;
22565;SDS011;11449;51.330;19.378;2023-05-21T20:16:09;15.30;;;6.10;;
22565;SDS011;11449;51.330;19.378;2023-05-21T20:21:18;16.30;;;5.90;;
22565;SDS011;11449;51.330;19.378;2023-05-21T20:26:27;21.00;;;7.30;;
22565;SDS011;11449;51.330;19.378;2023-05-21T20:31:36;16.60;;;7.00;;
22565;SDS011;11449;51.330;19.378;2023-05-21T20:36:44;20.20;;;7.20;;
22565;SDS011;11449;51.330;19.378;2023-05-21T20:41:53;20.50;;;7.60;;
22565;SDS011;11449;51.330;19.378;2023-05-21T20:47:02;22.70;;;8.60;;
22565;SDS011;11449;51.330;19.378;2023-05-21T20:52:13;26.40;;;8.70;;
22565;SDS011;11449;51.330;19.378;2023-05-21T20:57:21;42.00;;;13.60;;
22565;SDS011;11449;51.330;19.378;2023-05-21T21:02:29;36.40;;;9.10;;
22565;SDS011;11449;51.330;19.378;2023-05-21T21:07:36;34.10;;;11.30;;
22565;SDS011;11449;51.330;19.378;2023-05-21T21:12:44;24.80;;;7.60;;
22565;SDS011;11449;51.330;19.378;2023-05-21T21:17:52;28.40;;;7.70;;
22565;SDS011;11449;51.330;19.378;2023-05-21T21:23:00;21.50;;;6.70;;
22565;SDS011;11449;51.330;19.378;2023-05-21T21:28:08;22.80;;;7.80;;
22565;SDS011;11449;51.330;19.378;2023-05-21T21:33:17;22.10;;;7.00;;
22565;SDS011;11449;51.330;19.378;2023-05-21T21:38:24;19.50;;;7.20;;
22565;SDS011;11449;51.330;19.378;2023-05-21T21:43:32;18.10;;;7.30;;
22565;SDS011;11449;51.330;19.378;2023-05-21T21:48:40;18.60;;;7.00;;
22565;SDS011;11449;51.330;19.378;2023-05-21T21:53:48;16.20;;;6.30;;
22565;SDS011;11449;51.330;19.378;2023-05-21T21:58:55;24.20;;;6.90;;
22565;SDS011;11449;51.330;19.378;2023-05-21T22:04:04;22.60;;;6.80;;
22565;SDS011;11449;51.330;19.378;2023-05-21T22:09:12;19.10;;;6.90;;
22565;SDS011;11449;51.330;19.378;2023-05-21T22:14:19;16.20;;;5.90;;
22565;SDS011;11449;51.330;19.378;2023-05-21T22:19:27;20.40;;;7.40;;
22565;SDS011;11449;51.330;19.378;2023-05-21T22:24:35;21.40;;;8.20;;
22565;SDS011;11449;51.330;19.378;2023-05-21T22:29:43;16.80;;;6.80;;
22565;SDS011;11449;51.330;19.378;2023-05-21T22:34:50;14.20;;;6.20;;
22565;SDS011;11449;51.330;19.378;2023-05-21T22:39:58;16.80;;;6.80;;
22565;SDS011;11449;51.330;19.378;2023-05-21T22:45:06;17.70;;;7.60;;
22565;SDS011;11449;51.330;19.378;2023-05-21T22:50:14;18.70;;;7.40;;
22565;SDS011;11449;51.330;19.378;2023-05-21T22:55:23;15.20;;;7.20;;
22565;SDS011;11449;51.330;19.378;2023-05-21T23:00:32;15.60;;;7.80;;
22565;SDS011;11449;51.330;19.378;2023-05-21T23:05:39;18.20;;;7.70;;
22565;SDS011;11449;51.330;19.378;2023-05-21T23:10:47;16.30;;;6.90;;
22565;SDS011;11449;51.330;19.378;2023-05-21T23:15:55;13.90;;;6.90;;
22565;SDS011;11449;51.330;19.378;2023-05-21T23:21:05;19.50;;;7.20;;
22565;SDS011;11449;51.330;19.378;2023-05-21T23:26:13;20.70;;;6.70;;
22565;SDS011;11449;51.330;19.378;2023-05-21T23:31:21;20.70;;;8.20;;
22565;SDS011;11449;51.330;19.378;2023-05-21T23:36:29;20.10;;;7.50;;
22565;SDS011;11449;51.330;19.378;2023-05-21T23:41:37;23.90;;;7.80;;
22565;SDS011;11449;51.330;19.378;2023-05-21T23:46:45;25.10;;;7.40;;
22565;SDS011;11449;51.330;19.378;2023-05-21T23:51:53;24.90;;;8.60;;
22565;SDS011;11449;51.330;19.378;2023-05-21T23:57:01;23.50;;;7.90;;
